Time;durP1;ratioP1;P1;durP2;ratioP2;P2;SDS_P1;SDS_P2;PMS_P1;PMS_P2;Temp;Humidity;BMP_temperature;BMP_pressure;BME280_temperature;BME280_humidity;BME280_pressure;Samples;Min_cycle;Max_cycle;Signal;HPM_P1;HPM_P2
2022/12/07 00:01:20;;;;;;;;;;;;;;;-9.95;57.23;101001.03;5104542;28;19959;-68
2022/12/07 00:03:48;;;;;;;;;;;;;;;-9.95;57.58;100990.44;5104540;28;19935;-68
2022/12/07 00:06:15;;;;;;;;;;;;;;;-9.99;57.39;101001.28;5105137;28;20030;-68
2022/12/07 00:08:41;;;;;;;;;;;;;;;-9.98;57.00;101002.13;5089056;28;19974;-68
2022/12/07 00:11:07;;;;;;;;;;;;;;;-9.95;57.19;100993.97;5106417;28;19932;-68
2022/12/07 00:13:34;;;;;;;;;;;;;;;-9.98;57.06;100996.84;5107449;28;20038;-68
2022/12/07 00:16:00;;;;;;;;;;;;;;;-9.96;56.96;100992.28;5103832;28;19973;-68
2022/12/07 00:18:26;;;;;;;;;;;;;;;-10.01;57.08;100997.03;5102964;28;20627;-68
2022/12/07 00:20:58;;;;;;;;;;;;;;;-10.08;57.62;100995.81;5087148;28;20310;-68
2022/12/07 00:23:24;;;;;;;;;;;;;;;-10.12;57.95;100997.81;5105343;28;19938;-68
2022/12/07 00:25:50;;;;;;;;;;;;;;;-10.15;58.04;100996.22;5085628;28;19927;-68
2022/12/07 00:28:15;;;;;;;;;;;;;;;-10.16;57.95;100985.78;5103706;28;20038;-68
2022/12/07 00:30:41;;;;;;;;;;;;;;;-10.17;57.97;100992.03;5104094;28;19932;-68
2022/12/07 00:33:07;;;;;;;;;;;;;;;-10.22;57.83;100991.47;5105403;28;20050;-68
2022/12/07 00:35:33;;;;;;;;;;;;;;;-10.21;58.03;100993.19;5089423;28;19928;-69
2022/12/07 00:38:00;;;;;;;;;;;;;;;-10.25;58.36;100995.22;5085221;28;20318;-68
2022/12/07 00:40:25;;;;;;;;;;;;;;;-10.29;58.44;100997.22;5083760;28;19928;-67
2022/12/07 00:42:51;;;;;;;;;;;;;;;-10.30;58.38;100992.88;5083704;28;20302;-68
2022/12/07 00:45:17;;;;;;;;;;;;;;;-10.29;58.50;100993.75;5087260;28;19953;-68
2022/12/07 00:47:43;;;;;;;;;;;;;;;-10.33;58.46;100998.41;5069694;28;19928;-68
2022/12/07 00:50:09;;;;;;;;;;;;;;;-10.34;58.42;100998.50;5106998;28;20022;-68
2022/12/07 00:52:34;;;;;;;;;;;;;;;-10.37;58.85;100996.94;5106672;28;19927;-68
2022/12/07 00:55:02;;;;;;;;;;;;;;;-10.40;59.17;100994.50;5106790;28;19932;-68
2022/12/07 00:57:30;;;;;;;;;;;;;;;-10.40;58.79;100991.84;5103663;28;19977;-68
2022/12/07 00:59:57;;;;;;;;;;;;;;;-10.41;58.72;100998.97;5105984;28;20318;-68
2022/12/07 01:02:23;;;;;;;;;;;;;;;-10.44;59.21;100990.41;5091920;28;22017;-69
2022/12/07 01:04:48;;;;;;;;;;;;;;;-10.45;59.07;100996.66;5073670;28;19928;-68
2022/12/07 01:07:14;;;;;;;;;;;;;;;-10.50;59.43;100988.22;5084435;28;19981;-68
2022/12/07 01:09:40;;;;;;;;;;;;;;;-10.52;59.47;101000.69;5083309;28;19928;-68
2022/12/07 01:12:07;;;;;;;;;;;;;;;-10.54;59.24;100998.97;5082649;28;20038;-68
2022/12/07 01:14:33;;;;;;;;;;;;;;;-10.55;59.20;101005.22;5085936;28;20038;-68
2022/12/07 01:16:58;;;;;;;;;;;;;;;-10.54;59.22;100995.50;5066114;28;20533;-68
2022/12/07 01:19:24;;;;;;;;;;;;;;;-10.54;58.94;100987.56;5089858;28;19936;-68
2022/12/07 01:21:50;;;;;;;;;;;;;;;-10.48;59.26;101000.34;5103780;28;19951;-68
2022/12/07 01:24:15;;;;;;;;;;;;;;;-10.48;58.73;100989.78;5104312;28;19954;-68
2022/12/07 01:26:41;;;;;;;;;;;;;;;-10.49;58.73;100984.63;5104877;28;19935;-68
2022/12/07 01:29:08;;;;;;;;;;;;;;;-10.50;58.74;100991.69;5093741;28;19963;-64
2022/12/07 01:31:34;;;;;;;;;;;;;;;-10.51;59.04;100992.66;5083091;28;20026;-65
2022/12/07 01:34:00;;;;;;;;;;;;;;;-10.50;58.80;100986.41;5066813;28;20026;-65
2022/12/07 01:36:27;;;;;;;;;;;;;;;-10.45;58.37;100999.31;5083703;28;20510;-64
2022/12/07 01:38:56;;;;;;;;;;;;;;;-10.41;58.33;100988.41;5087189;28;20399;-68
2022/12/07 01:41:23;;;;;;;;;;;;;;;-10.43;58.40;100987.66;5084868;28;19935;-69
2022/12/07 01:44:11;;;;;;;;;;;;;;;-10.45;58.21;100979.00;5083487;28;20402;-68
2022/12/07 01:46:36;;;;;;;;;;;;;;;-10.45;58.23;100978.16;5081050;28;19973;-69
2022/12/07 01:49:03;;;;;;;;;;;;;;;-10.50;58.47;100972.34;5085083;28;19932;-68
2022/12/07 01:51:29;;;;;;;;;;;;;;;-10.50;58.44;100975.81;5084583;28;20531;-68
2022/12/07 01:53:56;;;;;;;;;;;;;;;-10.51;58.68;100974.13;5082509;28;19933;-68
2022/12/07 01:56:24;;;;;;;;;;;;;;;-10.57;58.98;100970.13;5067659;28;19935;-68
2022/12/07 01:58:50;;;;;;;;;;;;;;;-10.62;59.03;100972.25;5083468;28;19935;-68
2022/12/07 02:01:18;;;;;;;;;;;;;;;-10.63;59.01;100964.41;5096434;28;20030;-68
2022/12/07 02:03:44;;;;;;;;;;;;;;;-10.63;58.79;100973.22;5084739;28;19931;-68
2022/12/07 02:06:10;;;;;;;;;;;;;;;-10.63;58.78;100977.63;5102664;28;19985;-68
2022/12/07 02:08:36;;;;;;;;;;;;;;;-10.64;59.31;100978.59;5102052;28;19928;-68
2022/12/07 02:11:03;;;;;;;;;;;;;;;-10.66;59.01;100976.06;5097253;28;19951;-68
2022/12/07 02:13:30;;;;;;;;;;;;;;;-10.68;59.36;100970.88;5081036;28;19928;-68
2022/12/07 02:16:02;;;;;;;;;;;;;;;-10.66;59.16;100964.63;5084571;28;19950;-68
2022/12/07 02:18:37;;;;;;;;;;;;;;;-10.65;59.08;100961.03;5082153;28;19927;-68
2022/12/07 02:21:08;;;;;;;;;;;;;;;-10.71;59.35;100957.03;5086521;28;19966;-68
2022/12/07 02:23:46;;;;;;;;;;;;;;;-10.70;59.28;100961.34;5091907;28;19980;-68
2022/12/07 02:26:27;;;;;;;;;;;;;;;-10.74;59.31;100958.09;5103230;28;20025;-68
2022/12/07 02:29:07;;;;;;;;;;;;;;;-10.79;59.52;100968.13;5101904;28;19928;-68
2022/12/07 02:31:33;;;;;;;;;;;;;;;-10.91;59.88;100942.59;5083672;28;19928;-68
2022/12/07 02:34:04;;;;;;;;;;;;;;;-10.81;59.99;100956.00;5086476;28;20017;-68
2022/12/07 02:36:32;;;;;;;;;;;;;;;-10.87;60.05;100959.91;5108051;28;19927;-68
2022/12/07 02:38:59;;;;;;;;;;;;;;;-10.88;60.33;100958.22;5106604;28;19931;-68
2022/12/07 02:41:28;;;;;;;;;;;;;;;-10.88;60.52;100960.88;5108958;28;20364;-68
2022/12/07 02:43:55;;;;;;;;;;;;;;;-10.89;60.40;100962.66;5105412;28;20565;-68
2022/12/07 02:46:23;;;;;;;;;;;;;;;-10.90;60.34;100953.03;5106536;28;20341;-68
2022/12/07 02:48:49;;;;;;;;;;;;;;;-10.90;60.65;100958.31;5109624;28;20309;-64
2022/12/07 02:51:17;;;;;;;;;;;;;;;-10.90;60.34;100958.31;5106415;28;19936;-64
2022/12/07 02:53:43;;;;;;;;;;;;;;;-10.92;60.63;100959.41;5102904;28;19938;-65
2022/12/07 02:56:14;;;;;;;;;;;;;;;-10.97;60.70;100959.72;5086218;28;20049;-65
2022/12/07 02:58:46;;;;;;;;;;;;;;;-11.01;60.76;100953.78;5104825;28;19934;-64
2022/12/07 03:01:18;;;;;;;;;;;;;;;-11.05;61.00;100940.88;5107207;28;19928;-64
2022/12/07 03:03:49;;;;;;;;;;;;;;;-11.06;61.57;100961.19;5105871;28;20022;-64
2022/12/07 03:06:20;;;;;;;;;;;;;;;-11.06;61.15;100947.13;5106498;28;20406;-64
2022/12/07 03:08:50;;;;;;;;;;;;;;;-11.07;61.54;100945.44;5105711;28;20286;-65
2022/12/07 03:11:20;;;;;;;;;;;;;;;-11.11;61.47;100945.66;5085150;28;19927;-64
2022/12/07 03:13:47;;;;;;;;;;;;;;;-11.14;61.52;100948.50;5106922;28;20314;-64
2022/12/07 03:16:15;;;;;;;;;;;;;;;-11.14;61.97;100942.38;5104701;27;20397;-65
2022/12/07 03:18:44;;;;;;;;;;;;;;;-11.20;62.37;100950.72;5105697;28;19928;-64
2022/12/07 03:21:13;;;;;;;;;;;;;;;-11.23;62.17;100950.94;5105632;28;19927;-64
2022/12/07 03:23:41;;;;;;;;;;;;;;;-11.22;62.17;100947.34;5104478;28;20461;-64
2022/12/07 03:26:09;;;;;;;;;;;;;;;-11.22;62.28;100960.56;5103544;28;19931;-64
2022/12/07 03:28:36;;;;;;;;;;;;;;;-11.22;62.50;100953.44;5105690;28;19932;-64
2022/12/07 03:31:04;;;;;;;;;;;;;;;-11.27;62.38;100945.84;5105897;28;19927;-64
2022/12/07 03:33:32;;;;;;;;;;;;;;;-11.30;62.66;100953.97;5104257;28;19966;-64
2022/12/07 03:36:00;;;;;;;;;;;;;;;-11.31;62.77;100949.66;5105910;28;20292;-65
2022/12/07 03:38:31;;;;;;;;;;;;;;;-11.33;62.99;100950.69;5105476;28;19927;-64
2022/12/07 03:41:00;;;;;;;;;;;;;;;-11.32;63.13;100947.09;5107393;28;19928;-64
2022/12/07 03:43:27;;;;;;;;;;;;;;;-11.34;63.18;100947.22;5103618;28;20382;-64
2022/12/07 03:45:59;;;;;;;;;;;;;;;-11.38;63.22;100948.38;5094256;28;19928;-64
2022/12/07 03:48:27;;;;;;;;;;;;;;;-11.41;63.35;100946.78;5089855;28;19981;-64
2022/12/07 03:50:55;;;;;;;;;;;;;;;-11.45;63.72;100947.94;5086753;28;19928;-64
2022/12/07 03:53:23;;;;;;;;;;;;;;;-11.44;63.74;100954.91;5084234;28;19928;-64
2022/12/07 03:55:51;;;;;;;;;;;;;;;-11.42;63.81;100945.09;5081927;28;19979;-65
2022/12/07 03:58:18;;;;;;;;;;;;;;;-11.42;63.79;100942.47;5096974;28;19993;-65
2022/12/07 04:00:44;;;;;;;;;;;;;;;-11.46;63.85;100940.97;5107002;28;19938;-64
2022/12/07 04:03:11;;;;;;;;;;;;;;;-11.47;64.03;100941.94;5107842;28;19927;-64
2022/12/07 04:05:37;;;;;;;;;;;;;;;-11.49;64.37;100943.81;5105546;28;19967;-65
2022/12/07 04:08:03;;;;;;;;;;;;;;;-11.51;64.32;100944.88;5107141;28;20437;-64
2022/12/07 04:10:28;;;;;;;;;;;;;;;-11.53;64.26;100950.25;5106356;28;20410;-64
2022/12/07 04:12:56;;;;;;;;;;;;;;;-11.55;64.67;100942.44;5103002;28;19938;-64
2022/12/07 04:15:21;;;;;;;;;;;;;;;-11.56;64.85;100940.72;5107605;28;19957;-64
2022/12/07 04:17:47;;;;;;;;;;;;;;;-11.56;64.98;100931.97;5106996;28;20066;-64
2022/12/07 04:20:13;;;;;;;;;;;;;;;-11.57;64.97;100932.94;5084092;28;19927;-64
2022/12/07 04:22:39;;;;;;;;;;;;;;;-11.56;65.33;100937.25;5082968;28;20337;-64
2022/12/07 04:25:05;;;;;;;;;;;;;;;-11.57;65.20;100938.22;5097920;28;19931;-68
2022/12/07 04:27:31;;;;;;;;;;;;;;;-11.62;65.52;100935.88;5103892;28;19928;-68
2022/12/07 04:29:58;;;;;;;;;;;;;;;-11.64;65.77;100937.78;5088460;28;19973;-68
2022/12/07 04:32:24;;;;;;;;;;;;;;;-11.64;65.86;100934.28;5090908;28;19958;-68
2022/12/07 04:34:50;;;;;;;;;;;;;;;-11.68;66.04;100937.13;5087859;28;19935;-68
2022/12/07 04:37:17;;;;;;;;;;;;;;;-11.68;66.04;100936.28;5094931;28;20314;-68
2022/12/07 04:39:44;;;;;;;;;;;;;;;-11.71;66.11;100928.56;5105105;28;20294;-68
2022/12/07 04:42:10;;;;;;;;;;;;;;;-11.73;66.05;100936.59;5080440;28;20312;-68
2022/12/07 04:44:36;;;;;;;;;;;;;;;-11.73;66.46;100927.81;5062627;28;21260;-68
2022/12/07 04:47:03;;;;;;;;;;;;;;;-11.77;66.78;100934.25;5080173;28;20035;-69
2022/12/07 04:49:29;;;;;;;;;;;;;;;-11.80;66.91;100918.63;5086518;28;19928;-68
2022/12/07 04:51:55;;;;;;;;;;;;;;;-11.82;67.03;100927.50;5088813;28;20284;-68
2022/12/07 04:54:21;;;;;;;;;;;;;;;-11.83;67.26;100920.53;5069310;28;19935;-68
2022/12/07 04:56:47;;;;;;;;;;;;;;;-11.83;67.19;100931.09;5086416;28;19928;-68
2022/12/07 04:59:13;;;;;;;;;;;;;;;-11.83;67.30;100933.72;5085823;28;20423;-68
2022/12/07 05:01:39;;;;;;;;;;;;;;;-11.88;67.40;100927.88;5097632;28;20433;-69
2022/12/07 05:04:06;;;;;;;;;;;;;;;-11.92;67.38;100929.03;5100831;28;19927;-68
2022/12/07 05:06:32;;;;;;;;;;;;;;;-11.96;67.58;100936.31;5100714;28;19927;-68
2022/12/07 05:08:57;;;;;;;;;;;;;;;-11.97;68.04;100925.88;5106644;28;19935;-68
2022/12/07 05:11:38;;;;;;;;;;;;;;;-11.97;68.35;100926.69;5105989;28;20373;-68
2022/12/07 05:14:06;;;;;;;;;;;;;;;-11.94;68.16;100940.63;5079531;28;20240;-68
2022/12/07 05:16:31;;;;;;;;;;;;;;;-11.94;68.27;100933.56;5084589;28;19968;-69
2022/12/07 05:18:58;;;;;;;;;;;;;;;-11.96;68.31;100931.03;5072686;28;20176;-69
2022/12/07 05:21:25;;;;;;;;;;;;;;;-12.00;68.61;100937.47;5079150;28;20432;-68
2022/12/07 05:23:51;;;;;;;;;;;;;;;-12.01;68.96;100927.84;5096082;28;19932;-68
2022/12/07 05:26:17;;;;;;;;;;;;;;;-11.98;68.94;100926.81;5105063;28;19954;-68
2022/12/07 05:28:43;;;;;;;;;;;;;;;-11.98;69.37;100935.56;5103114;28;19928;-68
2022/12/07 05:31:08;;;;;;;;;;;;;;;-11.99;69.54;100936.50;5106898;28;19935;-68
2022/12/07 05:33:34;;;;;;;;;;;;;;;-12.02;69.74;100936.75;5089339;28;19986;-68
2022/12/07 05:36:05;;;;;;;;;;;;;;;-12.07;69.43;100925.66;5091843;27;19928;-68
2022/12/07 05:38:32;;;;;;;;;;;;;;;-12.06;70.00;100930.00;5090661;28;19927;-68
2022/12/07 05:41:01;;;;;;;;;;;;;;;-12.04;70.09;100921.94;5079644;28;20292;-68
2022/12/07 05:43:26;;;;;;;;;;;;;;;-12.03;70.15;100931.56;5090435;28;19927;-69
2022/12/07 05:45:52;;;;;;;;;;;;;;;-12.01;70.28;100932.31;5073048;28;19935;-69
2022/12/07 05:48:18;;;;;;;;;;;;;;;-12.01;70.42;100927.06;5071584;28;20478;-64
2022/12/07 05:50:44;;;;;;;;;;;;;;;-12.04;70.32;100933.38;5068414;28;19964;-65
2022/12/07 05:53:10;;;;;;;;;;;;;;;-12.02;70.80;100930.59;5058673;28;20020;-64
2022/12/07 05:55:38;;;;;;;;;;;;;;;-12.00;70.87;100929.53;5089193;28;20355;-64
2022/12/07 06:00:48;;;;;;;;;;;;;;;-11.97;71.07;100931.16;5082740;28;19928;-64
2022/12/07 06:03:13;;;;;;;;;;;;;;;-11.97;71.05;100925.88;5083230;28;19928;-64
2022/12/07 06:05:39;;;;;;;;;;;;;;;-11.94;70.84;100923.03;5083553;28;19928;-64
2022/12/07 06:08:23;;;;;;;;;;;;;;;-11.90;71.21;100927.13;5080526;28;20072;-64
2022/12/07 06:12:33;;;;;;;;;;;;;;;-11.83;71.29;100930.22;5084123;28;20027;-64
2022/12/07 06:13:37;;;;;;;;;;;;;;;-11.79;71.13;100930.88;5085273;28;20034;-65
2022/12/07 06:16:03;;;;;;;;;;;;;;;-11.77;71.28;100932.47;5070478;28;20026;-67
2022/12/07 06:18:28;;;;;;;;;;;;;;;-11.74;71.61;100920.84;5085930;28;19974;-65
2022/12/07 06:20:54;;;;;;;;;;;;;;;-11.70;71.59;100936.38;5086364;28;19935;-64
2022/12/07 06:23:20;;;;;;;;;;;;;;;-11.70;71.21;100928.47;5085645;28;19928;-65
2022/12/07 06:25:46;;;;;;;;;;;;;;;-11.65;71.83;100928.16;5085801;28;19967;-65
2022/12/07 06:28:13;;;;;;;;;;;;;;;-11.70;71.86;100931.09;5084461;28;19981;-64
2022/12/07 06:30:39;;;;;;;;;;;;;;;-11.69;71.98;100924.88;5085620;28;19928;-64
2022/12/07 06:33:04;;;;;;;;;;;;;;;-11.68;72.20;100925.72;5085671;28;19928;-64
2022/12/07 06:35:32;;;;;;;;;;;;;;;-11.66;72.06;100931.75;5083815;28;19936;-64
2022/12/07 06:37:57;;;;;;;;;;;;;;;-11.63;72.40;100930.69;5087248;28;19928;-64
2022/12/07 06:40:23;;;;;;;;;;;;;;;-11.62;72.47;100929.75;5061768;28;20264;-65
2022/12/07 06:42:49;;;;;;;;;;;;;;;-11.64;72.21;100919.28;5066751;28;20287;-64
2022/12/07 06:45:16;;;;;;;;;;;;;;;-11.62;72.34;100927.13;5064513;28;19979;-64
2022/12/07 06:47:42;;;;;;;;;;;;;;;-11.57;72.29;100933.75;5064487;28;20032;-64
2022/12/07 06:50:08;;;;;;;;;;;;;;;-11.54;72.40;100930.06;5087963;28;20375;-64
2022/12/07 06:52:34;;;;;;;;;;;;;;;-11.56;72.13;100931.97;5091455;28;19928;-64
2022/12/07 06:55:00;;;;;;;;;;;;;;;-11.53;72.52;100926.50;5106253;28;19973;-64
2022/12/07 06:57:26;;;;;;;;;;;;;;;-11.51;72.33;100929.88;5105963;28;19927;-64
2022/12/07 06:59:51;;;;;;;;;;;;;;;-11.42;72.23;100931.91;5106283;28;20083;-64
2022/12/07 07:02:18;;;;;;;;;;;;;;;-11.36;72.32;100932.41;5104779;28;20038;-64
2022/12/07 07:04:44;;;;;;;;;;;;;;;-11.35;72.11;100923.53;5103131;28;19932;-65
2022/12/07 07:07:10;;;;;;;;;;;;;;;-11.31;71.77;100930.31;5095152;28;20415;-64
2022/12/07 07:09:35;;;;;;;;;;;;;;;-11.29;71.73;100931.91;5090814;28;19928;-64
2022/12/07 07:12:01;;;;;;;;;;;;;;;-11.23;71.92;100933.28;5096537;28;20318;-65
2022/12/07 07:14:27;;;;;;;;;;;;;;;-11.20;71.87;100942.78;5090406;28;19961;-64
2022/12/07 07:16:52;;;;;;;;;;;;;;;-11.21;71.77;100939.28;5087392;28;19935;-64
2022/12/07 07:19:20;;;;;;;;;;;;;;;-11.19;71.60;100936.56;5086378;28;19928;-64
2022/12/07 07:21:45;;;;;;;;;;;;;;;-11.19;71.46;100939.19;5092069;28;19951;-64
2022/12/07 07:24:11;;;;;;;;;;;;;;;-11.14;71.77;100940.59;5096482;28;19971;-64
2022/12/07 07:26:37;;;;;;;;;;;;;;;-11.10;71.33;100925.34;5095699;28;19972;-64
2022/12/07 07:29:03;;;;;;;;;;;;;;;-11.05;71.45;100935.59;5096662;28;20399;-64
2022/12/07 07:31:28;;;;;;;;;;;;;;;-11.05;71.18;100935.59;5093741;28;19953;-64
2022/12/07 07:33:54;;;;;;;;;;;;;;;-11.03;71.49;100933.69;5101581;28;20027;-64
2022/12/07 07:36:21;;;;;;;;;;;;;;;-11.00;70.86;100929.03;5103186;28;19928;-64
2022/12/07 07:38:47;;;;;;;;;;;;;;;-10.92;71.06;100917.13;5106227;28;19928;-64
2022/12/07 07:41:13;;;;;;;;;;;;;;;-10.85;71.07;100923.66;5089326;28;19939;-64
2022/12/07 07:43:38;;;;;;;;;;;;;;;-10.78;70.61;100918.78;5104579;28;19935;-64
2022/12/07 07:46:04;;;;;;;;;;;;;;;-10.79;70.25;100917.91;5088160;28;19928;-64
2022/12/07 07:48:30;;;;;;;;;;;;;;;-10.79;70.41;100917.91;5087416;28;19928;-64
2022/12/07 07:50:56;;;;;;;;;;;;;;;-10.79;69.88;100909.16;5089783;28;19928;-64
2022/12/07 07:53:23;;;;;;;;;;;;;;;-10.88;69.99;100911.47;5092155;28;19967;-64
2022/12/07 07:55:53;;;;;;;;;;;;;;;-10.89;70.35;100912.44;5088178;28;19971;-64
2022/12/07 07:58:18;;;;;;;;;;;;;;;-10.86;70.10;100914.03;5091237;28;20000;-64
2022/12/07 08:00:44;;;;;;;;;;;;;;;-10.80;70.41;100908.28;5102462;28;19964;-65
2022/12/07 08:03:10;;;;;;;;;;;;;;;-10.86;69.88;100893.72;5086577;28;20518;-64
2022/12/07 08:05:36;;;;;;;;;;;;;;;-10.70;69.85;100898.78;5082297;28;20006;-64
2022/12/07 08:08:02;;;;;;;;;;;;;;;-10.68;69.88;100907.44;5077992;28;19961;-64
2022/12/07 08:10:32;;;;;;;;;;;;;;;-10.65;69.92;100898.44;5087388;28;19932;-64
2022/12/07 08:13:13;;;;;;;;;;;;;;;-10.58;69.76;100890.91;5079237;28;19935;-68
2022/12/07 08:15:40;;;;;;;;;;;;;;;-10.49;69.29;100892.06;5099436;28;19935;-68
2022/12/07 08:18:06;;;;;;;;;;;;;;;-10.40;69.00;100899.28;5103930;28;19927;-68
2022/12/07 08:20:32;;;;;;;;;;;;;;;-9.80;67.78;100891.38;5087820;28;20406;-68
2022/12/07 08:22:58;;;;;;;;;;;;;;;-8.64;64.60;100894.88;5087690;28;19932;-68
2022/12/07 08:25:24;;;;;;;;;;;;;;;-7.64;61.28;100885.00;5085938;28;19932;-69
2022/12/07 08:27:51;;;;;;;;;;;;;;;-7.07;58.33;100891.78;5095274;28;19927;-69
2022/12/07 08:30:17;;;;;;;;;;;;;;;-6.78;56.72;100883.91;5076060;28;20315;-69
2022/12/07 08:32:44;;;;;;;;;;;;;;;-6.61;56.21;100884.22;5084317;28;19928;-69
2022/12/07 08:35:09;;;;;;;;;;;;;;;-6.31;54.99;100880.69;5093288;28;20468;-69
2022/12/07 08:37:35;;;;;;;;;;;;;;;-6.17;54.76;100876.75;5086305;28;19959;-69
2022/12/07 08:40:01;;;;;;;;;;;;;;;-5.81;53.99;100885.97;5097920;28;20341;-69
2022/12/07 08:42:29;;;;;;;;;;;;;;;-5.37;52.92;100880.19;5091685;28;19935;-69
2022/12/07 08:44:56;;;;;;;;;;;;;;;-5.02;50.97;100874.19;5090739;28;19935;-69
2022/12/07 08:47:23;;;;;;;;;;;;;;;-4.72;50.31;100868.72;5095430;28;20055;-69
2022/12/07 08:49:50;;;;;;;;;;;;;;;-4.79;50.05;100864.97;5084426;28;20544;-69
2022/12/07 08:52:16;;;;;;;;;;;;;;;-4.47;50.53;100861.00;5081306;28;19928;-69
2022/12/07 08:54:42;;;;;;;;;;;;;;;-4.05;48.76;100860.44;5085090;28;19934;-69
2022/12/07 08:57:08;;;;;;;;;;;;;;;-3.68;48.05;100850.56;5083161;28;19928;-69
2022/12/07 08:59:35;;;;;;;;;;;;;;;-3.52;47.04;100862.38;5083951;28;20311;-69
2022/12/07 09:02:02;;;;;;;;;;;;;;;-3.13;46.90;100856.59;5082888;28;19928;-69
2022/12/07 09:04:28;;;;;;;;;;;;;;;-2.62;46.00;100845.13;5065568;28;20023;-69
2022/12/07 09:06:54;;;;;;;;;;;;;;;-2.30;45.29;100849.72;5085572;28;20027;-70
2022/12/07 09:09:20;;;;;;;;;;;;;;;-1.98;43.94;100841.06;5087844;28;19955;-69
2022/12/07 09:11:45;;;;;;;;;;;;;;;-2.02;43.62;100838.72;5077508;28;19928;-70
2022/12/07 09:14:12;;;;;;;;;;;;;;;-2.36;42.93;100839.66;5074192;28;20023;-70
2022/12/07 09:16:37;;;;;;;;;;;;;;;-2.28;43.72;100844.19;5087261;28;20391;-69
2022/12/07 09:19:04;;;;;;;;;;;;;;;-2.20;43.55;100849.56;5084520;28;19928;-70
2022/12/07 09:21:30;;;;;;;;;;;;;;;-2.15;42.47;100835.66;5095914;28;20399;-70
2022/12/07 09:23:56;;;;;;;;;;;;;;;-2.42;42.65;100840.31;5094703;28;19928;-65
2022/12/07 09:26:22;;;;;;;;;;;;;;;-2.69;42.78;100839.56;5086682;28;20101;-65
2022/12/07 09:28:47;;;;;;;;;;;;;;;-2.37;42.89;100827.28;5069031;28;20447;-65
2022/12/07 09:31:13;;;;;;;;;;;;;;;-2.06;41.59;100821.28;5097068;28;19939;-65
2022/12/07 09:33:41;;;;;;;;;;;;;;;-2.37;41.24;100819.25;5086913;28;20468;-65
2022/12/07 09:36:09;;;;;;;;;;;;;;;-2.79;41.38;100823.66;5067313;28;19967;-65
2022/12/07 09:38:35;;;;;;;;;;;;;;;-2.71;41.47;100823.66;5085912;28;19971;-65
2022/12/07 09:41:04;;;;;;;;;;;;;;;-2.82;41.87;100813.25;5089507;28;19971;-65
2022/12/07 09:43:30;;;;;;;;;;;;;;;-2.83;41.87;100808.88;5090480;28;19928;-65
2022/12/07 09:45:56;;;;;;;;;;;;;;;-2.79;42.30;100826.31;5085854;28;19981;-65
2022/12/07 09:48:30;;;;;;;;;;;;;;;-2.28;40.46;100809.38;5094255;28;20011;-65
2022/12/07 09:50:57;;;;;;;;;;;;;;;-2.48;41.18;100809.69;5085894;28;19935;-65
2022/12/07 09:53:26;;;;;;;;;;;;;;;-2.59;40.74;100812.66;5096576;28;20359;-65
2022/12/07 09:55:53;;;;;;;;;;;;;;;-2.44;40.82;100805.66;5077901;28;19928;-65
2022/12/07 09:58:20;;;;;;;;;;;;;;;-2.16;41.18;100801.84;5066474;28;19928;-65
2022/12/07 10:00:46;;;;;;;;;;;;;;;-1.53;40.58;100794.09;5085094;28;19928;-65
2022/12/07 10:03:12;;;;;;;;;;;;;;;-0.98;39.30;100791.59;5079278;28;20034;-65
2022/12/07 10:05:41;;;;;;;;;;;;;;;-0.76;38.81;100787.31;5104236;28;19931;-65
2022/12/07 10:08:08;;;;;;;;;;;;;;;-0.32;37.71;100791.25;5097320;28;19935;-65
2022/12/07 10:10:38;;;;;;;;;;;;;;;-0.29;38.11;100788.19;5083527;28;20438;-65
2022/12/07 10:13:05;;;;;;;;;;;;;;;-0.40;37.26;100793.97;5082631;28;19928;-66
2022/12/07 10:15:41;;;;;;;;;;;;;;;-0.38;37.70;100789.28;5085078;28;19928;-65
2022/12/07 10:18:16;;;;;;;;;;;;;;;-0.65;37.55;100786.06;5088148;28;19935;-65
2022/12/07 10:20:42;;;;;;;;;;;;;;;-0.53;37.72;100785.69;5086188;28;19935;-65
2022/12/07 10:23:13;;;;;;;;;;;;;;;-0.55;37.34;100775.09;5088395;28;20211;-65
2022/12/07 10:25:42;;;;;;;;;;;;;;;-1.21;37.52;100778.09;5080966;28;19928;-65
2022/12/07 10:28:12;;;;;;;;;;;;;;;-1.39;38.04;100781.84;5071034;28;20034;-65
2022/12/07 10:30:47;;;;;;;;;;;;;;;-1.34;38.21;100787.53;5084010;28;19929;-65
2022/12/07 10:33:27;;;;;;;;;;;;;;;-1.49;38.65;100786.56;5078104;28;19928;-65
2022/12/07 10:35:52;;;;;;;;;;;;;;;-0.79;37.96;100782.25;5076723;28;19967;-65
2022/12/07 10:38:18;;;;;;;;;;;;;;;-0.39;36.95;100771.47;5082238;28;20025;-65
2022/12/07 10:40:45;;;;;;;;;;;;;;;-0.33;36.54;100772.59;5075463;28;20322;-65
2022/12/07 10:43:17;;;;;;;;;;;;;;;-0.81;36.56;100776.22;5070296;28;19928;-65
2022/12/07 10:45:57;;;;;;;;;;;;;;;-1.75;38.36;100775.03;5085788;28;20314;-65
2022/12/07 10:48:26;;;;;;;;;;;;;;;-1.75;38.37;100764.31;5085574;28;19935;-65
2022/12/07 10:50:56;;;;;;;;;;;;;;;-2.23;38.88;100757.97;5086409;28;19935;-65
2022/12/07 10:53:36;;;;;;;;;;;;;;;-2.77;39.92;100776.13;5087266;28;19932;-65
2022/12/07 10:56:27;;;;;;;;;;;;;;;-2.75;40.38;100771.44;5096492;28;20030;-65
2022/12/07 10:58:59;;;;;;;;;;;;;;;-2.50;39.88;100749.22;5095063;28;19934;-65
2022/12/07 11:01:29;;;;;;;;;;;;;;;-2.38;39.66;100749.75;5099957;28;20462;-65
2022/12/07 11:04:12;;;;;;;;;;;;;;;-2.18;39.38;100753.78;5083645;28;20207;-65
2022/12/07 11:06:41;;;;;;;;;;;;;;;-1.84;38.95;100761.81;5076654;28;19978;-65
2022/12/07 11:09:24;;;;;;;;;;;;;;;-1.64;38.24;100747.00;5086342;28;19947;-65
2022/12/07 11:11:57;;;;;;;;;;;;;;;-1.10;38.28;100745.47;5099763;28;19943;-65
2022/12/07 11:14:25;;;;;;;;;;;;;;;-0.89;37.46;100744.88;5098304;28;20026;-65
2022/12/07 11:16:55;;;;;;;;;;;;;;;-1.18;37.84;100740.16;5098586;28;20449;-65
2022/12/07 11:19:28;;;;;;;;;;;;;;;-1.37;37.51;100731.53;5090886;28;19928;-65
2022/12/07 11:21:57;;;;;;;;;;;;;;;-1.33;38.10;100732.00;5099539;28;19981;-70
2022/12/07 11:24:27;;;;;;;;;;;;;;;-1.10;38.14;100740.13;5091910;28;20031;-70
2022/12/07 11:27:01;;;;;;;;;;;;;;;-0.86;37.53;100732.97;5088834;28;19932;-69
2022/12/07 11:29:37;;;;;;;;;;;;;;;-0.47;36.96;100725.84;5066708;28;19928;-69
2022/12/07 11:32:09;;;;;;;;;;;;;;;-0.72;37.18;100716.09;5067998;28;19947;-70
2022/12/07 11:34:38;;;;;;;;;;;;;;;-1.20;37.80;100726.91;5082733;28;19978;-69
2022/12/07 11:37:09;;;;;;;;;;;;;;;-1.91;38.76;100714.22;5086695;28;19928;-69
2022/12/07 11:39:36;;;;;;;;;;;;;;;-1.99;39.60;100727.63;5069525;28;20038;-70
2022/12/07 11:42:06;;;;;;;;;;;;;;;-1.98;39.67;100723.94;5091389;28;19927;-70
2022/12/07 11:44:34;;;;;;;;;;;;;;;-1.81;39.34;100727.44;5084157;28;19928;-69
2022/12/07 11:47:04;;;;;;;;;;;;;;;-1.84;39.33;100718.91;5086493;28;19971;-70
2022/12/07 11:49:37;;;;;;;;;;;;;;;-1.44;38.86;100717.97;5085470;28;19932;-69
2022/12/07 11:52:04;;;;;;;;;;;;;;;-1.22;38.52;100726.25;5086190;28;19928;-70
2022/12/07 11:54:31;;;;;;;;;;;;;;;-1.74;38.95;100717.72;5084461;28;20314;-70
2022/12/07 11:57:03;;;;;;;;;;;;;;;-1.92;39.20;100709.84;5084241;28;20416;-70
2022/12/07 11:59:32;;;;;;;;;;;;;;;-2.38;39.63;100701.50;5088090;28;19928;-70
2022/12/07 12:02:00;;;;;;;;;;;;;;;-3.15;41.24;100701.56;5069420;28;19932;-65
2022/12/07 12:04:32;;;;;;;;;;;;;;;-3.20;41.61;100708.41;5086860;28;19935;-65
2022/12/07 12:06:58;;;;;;;;;;;;;;;-3.14;41.59;100697.91;5083727;28;20304;-65
2022/12/07 12:09:27;;;;;;;;;;;;;;;-3.11;41.62;100696.75;5053172;28;19928;-69
2022/12/07 12:12:12;;;;;;;;;;;;;;;-3.70;42.43;100694.81;5088126;28;19928;-65
2022/12/07 12:14:46;;;;;;;;;;;;;;;-3.62;42.92;100683.34;5085373;28;19928;-69
2022/12/07 12:17:27;;;;;;;;;;;;;;;-3.49;42.87;100683.72;5095554;28;20034;-69
2022/12/07 12:20:00;;;;;;;;;;;;;;;-3.98;43.71;100692.31;5086541;28;19928;-69
2022/12/07 12:22:28;;;;;;;;;;;;;;;-4.18;44.46;100679.16;5086367;28;19939;-69
2022/12/07 12:24:55;;;;;;;;;;;;;;;-4.39;45.16;100684.00;5091492;28;19935;-68
2022/12/07 12:27:23;;;;;;;;;;;;;;;-5.25;46.63;100681.69;5087827;28;20022;-69
2022/12/07 12:29:54;;;;;;;;;;;;;;;-6.40;49.25;100676.53;5085023;28;20415;-68
2022/12/07 12:32:20;;;;;;;;;;;;;;;-7.22;51.78;100678.59;5086321;28;19939;-69
2022/12/07 12:35:01;;;;;;;;;;;;;;;-7.69;53.04;100674.69;5085714;28;20443;-68
2022/12/07 12:37:44;;;;;;;;;;;;;;;-8.05;55.23;100679.56;5086647;28;20010;-67